sensor_id;sensor_type;location;lat;lon;timestamp;P1;durP1;ratioP1;P2;durP2;ratioP2
80195;SDS011;69516;42.050;21.516;2024-03-25T00:02:01;5.40;;;1.30;;
80195;SDS011;69516;42.050;21.516;2024-03-25T00:04:27;4.75;;;1.52;;
80195;SDS011;69516;42.050;21.516;2024-03-25T00:06:54;4.45;;;1.58;;
80195;SDS011;69516;42.050;21.516;2024-03-25T00:09:22;5.65;;;2.00;;
80195;SDS011;69516;42.050;21.516;2024-03-25T00:11:48;7.15;;;3.47;;
80195;SDS011;69516;42.050;21.516;2024-03-25T00:14:14;7.20;;;3.60;;
80195;SDS011;69516;42.050;21.516;2024-03-25T00:16:40;7.25;;;3.55;;
80195;SDS011;69516;42.050;21.516;2024-03-25T00:19:06;7.35;;;3.70;;
80195;SDS011;69516;42.050;21.516;2024-03-25T00:21:32;10.70;;;4.32;;
80195;SDS011;69516;42.050;21.516;2024-03-25T00:23:58;8.65;;;4.40;;
80195;SDS011;69516;42.050;21.516;2024-03-25T00:26:25;7.40;;;2.53;;
80195;SDS011;69516;42.050;21.516;2024-03-25T00:28:52;7.82;;;2.60;;
80195;SDS011;69516;42.050;21.516;2024-03-25T00:31:18;6.20;;;2.70;;
80195;SDS011;69516;42.050;21.516;2024-03-25T00:33:45;7.03;;;2.63;;
80195;SDS011;69516;42.050;21.516;2024-03-25T00:36:11;6.28;;;3.17;;
80195;SDS011;69516;42.050;21.516;2024-03-25T00:38:37;6.47;;;2.30;;
80195;SDS011;69516;42.050;21.516;2024-03-25T00:41:03;5.88;;;2.70;;
80195;SDS011;69516;42.050;21.516;2024-03-25T00:43:29;5.50;;;2.17;;
80195;SDS011;69516;42.050;21.516;2024-03-25T00:45:55;5.43;;;2.10;;
80195;SDS011;69516;42.050;21.516;2024-03-25T00:48:22;5.20;;;2.03;;
80195;SDS011;69516;42.050;21.516;2024-03-25T00:50:48;6.22;;;2.47;;
80195;SDS011;69516;42.050;21.516;2024-03-25T00:53:15;4.68;;;2.13;;
80195;SDS011;69516;42.050;21.516;2024-03-25T00:55:41;4.22;;;1.77;;
80195;SDS011;69516;42.050;21.516;2024-03-25T00:58:07;3.42;;;1.27;;
80195;SDS011;69516;42.050;21.516;2024-03-25T01:00:33;4.50;;;1.50;;
80195;SDS011;69516;42.050;21.516;2024-03-25T01:03:00;3.90;;;1.30;;
80195;SDS011;69516;42.050;21.516;2024-03-25T01:05:26;3.67;;;1.10;;
80195;SDS011;69516;42.050;21.516;2024-03-25T01:07:52;3.25;;;1.20;;
80195;SDS011;69516;42.050;21.516;2024-03-25T01:10:19;3.38;;;1.20;;
80195;SDS011;69516;42.050;21.516;2024-03-25T01:12:45;3.05;;;1.20;;
80195;SDS011;69516;42.050;21.516;2024-03-25T01:15:12;3.53;;;1.23;;
80195;SDS011;69516;42.050;21.516;2024-03-25T01:17:38;3.00;;;1.08;;
80195;SDS011;69516;42.050;21.516;2024-03-25T01:20:04;2.92;;;1.20;;
80195;SDS011;69516;42.050;21.516;2024-03-25T01:22:31;5.65;;;2.88;;
80195;SDS011;69516;42.050;21.516;2024-03-25T01:24:57;5.03;;;2.97;;
80195;SDS011;69516;42.050;21.516;2024-03-25T01:27:23;5.20;;;3.05;;
80195;SDS011;69516;42.050;21.516;2024-03-25T01:29:49;5.82;;;3.10;;
80195;SDS011;69516;42.050;21.516;2024-03-25T01:32:16;6.35;;;3.60;;
80195;SDS011;69516;42.050;21.516;2024-03-25T01:34:42;6.50;;;3.28;;
80195;SDS011;69516;42.050;21.516;2024-03-25T01:37:08;6.70;;;3.63;;
80195;SDS011;69516;42.050;21.516;2024-03-25T01:39:34;6.00;;;3.80;;
80195;SDS011;69516;42.050;21.516;2024-03-25T01:42:00;6.35;;;3.67;;
80195;SDS011;69516;42.050;21.516;2024-03-25T01:44:26;5.78;;;3.53;;
80195;SDS011;69516;42.050;21.516;2024-03-25T01:46:52;6.55;;;3.30;;
80195;SDS011;69516;42.050;21.516;2024-03-25T01:49:19;6.95;;;3.80;;
80195;SDS011;69516;42.050;21.516;2024-03-25T01:51:46;5.53;;;3.08;;
80195;SDS011;69516;42.050;21.516;2024-03-25T01:54:12;5.72;;;2.50;;
80195;SDS011;69516;42.050;21.516;2024-03-25T01:56:41;4.00;;;2.00;;
80195;SDS011;69516;42.050;21.516;2024-03-25T01:59:07;4.50;;;1.95;;
80195;SDS011;69516;42.050;21.516;2024-03-25T02:01:34;7.47;;;3.08;;
80195;SDS011;69516;42.050;21.516;2024-03-25T02:04:00;11.77;;;5.35;;
80195;SDS011;69516;42.050;21.516;2024-03-25T02:06:26;4.60;;;1.80;;
80195;SDS011;69516;42.050;21.516;2024-03-25T02:08:53;5.40;;;2.25;;
80195;SDS011;69516;42.050;21.516;2024-03-25T02:11:20;4.40;;;1.92;;
80195;SDS011;69516;42.050;21.516;2024-03-25T02:13:46;2.72;;;1.10;;
80195;SDS011;69516;42.050;21.516;2024-03-25T02:16:13;2.33;;;0.90;;
80195;SDS011;69516;42.050;21.516;2024-03-25T02:18:39;2.30;;;0.80;;
80195;SDS011;69516;42.050;21.516;2024-03-25T02:21:05;2.60;;;0.90;;
80195;SDS011;69516;42.050;21.516;2024-03-25T02:23:31;2.97;;;0.80;;
80195;SDS011;69516;42.050;21.516;2024-03-25T02:25:59;2.20;;;0.80;;
80195;SDS011;69516;42.050;21.516;2024-03-25T02:28:25;3.20;;;0.98;;
80195;SDS011;69516;42.050;21.516;2024-03-25T02:30:51;5.30;;;2.25;;
80195;SDS011;69516;42.050;21.516;2024-03-25T02:33:18;6.55;;;2.47;;
80195;SDS011;69516;42.050;21.516;2024-03-25T02:35:44;2.72;;;0.80;;
80195;SDS011;69516;42.050;21.516;2024-03-25T02:38:10;2.20;;;0.80;;
80195;SDS011;69516;42.050;21.516;2024-03-25T02:40:37;2.78;;;0.80;;
80195;SDS011;69516;42.050;21.516;2024-03-25T02:43:03;2.70;;;1.00;;
80195;SDS011;69516;42.050;21.516;2024-03-25T02:45:32;3.10;;;1.30;;
80195;SDS011;69516;42.050;21.516;2024-03-25T02:47:58;4.68;;;1.83;;
80195;SDS011;69516;42.050;21.516;2024-03-25T02:50:24;4.03;;;1.70;;
80195;SDS011;69516;42.050;21.516;2024-03-25T02:52:50;4.95;;;2.05;;
80195;SDS011;69516;42.050;21.516;2024-03-25T02:55:16;5.07;;;2.40;;
80195;SDS011;69516;42.050;21.516;2024-03-25T02:57:43;4.50;;;2.28;;
80195;SDS011;69516;42.050;21.516;2024-03-25T03:00:09;4.90;;;2.58;;
80195;SDS011;69516;42.050;21.516;2024-03-25T03:02:35;4.95;;;2.30;;
80195;SDS011;69516;42.050;21.516;2024-03-25T03:05:01;5.03;;;2.78;;
80195;SDS011;69516;42.050;21.516;2024-03-25T03:07:29;7.70;;;3.63;;
80195;SDS011;69516;42.050;21.516;2024-03-25T03:09:55;8.00;;;4.15;;
80195;SDS011;69516;42.050;21.516;2024-03-25T03:12:21;10.50;;;5.32;;
80195;SDS011;69516;42.050;21.516;2024-03-25T03:14:47;12.98;;;6.65;;
80195;SDS011;69516;42.050;21.516;2024-03-25T03:17:13;12.25;;;5.00;;
80195;SDS011;69516;42.050;21.516;2024-03-25T03:19:39;14.40;;;7.45;;
80195;SDS011;69516;42.050;21.516;2024-03-25T03:22:05;12.73;;;6.22;;
80195;SDS011;69516;42.050;21.516;2024-03-25T03:24:31;12.65;;;6.30;;
80195;SDS011;69516;42.050;21.516;2024-03-25T03:26:58;12.70;;;6.40;;
80195;SDS011;69516;42.050;21.516;2024-03-25T03:29:24;11.43;;;4.97;;
80195;SDS011;69516;42.050;21.516;2024-03-25T03:31:50;11.13;;;5.15;;
80195;SDS011;69516;42.050;21.516;2024-03-25T03:34:16;9.38;;;5.05;;
80195;SDS011;69516;42.050;21.516;2024-03-25T03:36:42;10.50;;;5.40;;
80195;SDS011;69516;42.050;21.516;2024-03-25T03:39:08;10.57;;;5.07;;
80195;SDS011;69516;42.050;21.516;2024-03-25T03:41:35;12.13;;;6.25;;
80195;SDS011;69516;42.050;21.516;2024-03-25T03:44:01;11.07;;;5.47;;
80195;SDS011;69516;42.050;21.516;2024-03-25T03:46:27;12.30;;;5.82;;
80195;SDS011;69516;42.050;21.516;2024-03-25T03:48:54;12.25;;;5.68;;
80195;SDS011;69516;42.050;21.516;2024-03-25T03:51:20;12.52;;;5.72;;
80195;SDS011;69516;42.050;21.516;2024-03-25T03:53:46;13.40;;;5.93;;
80195;SDS011;69516;42.050;21.516;2024-03-25T03:56:12;12.32;;;6.18;;
80195;SDS011;69516;42.050;21.516;2024-03-25T03:58:38;12.93;;;6.97;;
80195;SDS011;69516;42.050;21.516;2024-03-25T04:01:05;14.27;;;6.53;;
80195;SDS011;69516;42.050;21.516;2024-03-25T04:03:39;11.50;;;6.22;;
80195;SDS011;69516;42.050;21.516;2024-03-25T04:06:12;12.77;;;5.80;;
80195;SDS011;69516;42.050;21.516;2024-03-25T04:08:38;12.38;;;6.43;;
80195;SDS011;69516;42.050;21.516;2024-03-25T04:11:05;12.85;;;6.38;;
80195;SDS011;69516;42.050;21.516;2024-03-25T04:13:32;12.63;;;6.25;;
80195;SDS011;69516;42.050;21.516;2024-03-25T04:16:07;10.05;;;5.68;;
80195;SDS011;69516;42.050;21.516;2024-03-25T04:18:33;12.50;;;5.97;;
80195;SDS011;69516;42.050;21.516;2024-03-25T04:20:59;12.48;;;5.90;;
80195;SDS011;69516;42.050;21.516;2024-03-25T04:23:26;13.05;;;6.32;;
80195;SDS011;69516;42.050;21.516;2024-03-25T04:25:52;13.75;;;6.13;;
80195;SDS011;69516;42.050;21.516;2024-03-25T04:28:19;11.93;;;5.47;;
80195;SDS011;69516;42.050;21.516;2024-03-25T04:30:50;12.35;;;5.65;;
80195;SDS011;69516;42.050;21.516;2024-03-25T04:33:16;12.02;;;5.85;;
80195;SDS011;69516;42.050;21.516;2024-03-25T04:35:44;11.73;;;5.80;;
80195;SDS011;69516;42.050;21.516;2024-03-25T04:38:10;12.88;;;6.25;;
80195;SDS011;69516;42.050;21.516;2024-03-25T04:40:36;16.65;;;6.40;;
80195;SDS011;69516;42.050;21.516;2024-03-25T04:43:03;14.10;;;7.28;;
80195;SDS011;69516;42.050;21.516;2024-03-25T04:45:29;14.55;;;7.65;;
80195;SDS011;69516;42.050;21.516;2024-03-25T04:47:55;18.00;;;8.75;;
80195;SDS011;69516;42.050;21.516;2024-03-25T04:50:21;20.58;;;12.30;;
80195;SDS011;69516;42.050;21.516;2024-03-25T04:52:47;17.85;;;9.18;;
80195;SDS011;69516;42.050;21.516;2024-03-25T04:55:13;15.27;;;7.70;;
80195;SDS011;69516;42.050;21.516;2024-03-25T04:57:39;13.77;;;6.80;;
80195;SDS011;69516;42.050;21.516;2024-03-25T05:00:06;13.73;;;7.03;;
80195;SDS011;69516;42.050;21.516;2024-03-25T05:02:36;14.93;;;8.40;;
80195;SDS011;69516;42.050;21.516;2024-03-25T05:05:02;17.65;;;9.68;;
80195;SDS011;69516;42.050;21.516;2024-03-25T05:07:28;15.88;;;7.68;;
80195;SDS011;69516;42.050;21.516;2024-03-25T05:09:54;16.40;;;8.35;;
80195;SDS011;69516;42.050;21.516;2024-03-25T05:12:21;12.63;;;6.18;;
80195;SDS011;69516;42.050;21.516;2024-03-25T05:14:47;10.77;;;5.57;;
80195;SDS011;69516;42.050;21.516;2024-03-25T05:17:13;11.38;;;5.82;;
80195;SDS011;69516;42.050;21.516;2024-03-25T05:19:39;13.23;;;6.70;;
80195;SDS011;69516;42.050;21.516;2024-03-25T05:22:05;13.23;;;5.65;;
80195;SDS011;69516;42.050;21.516;2024-03-25T05:24:31;11.82;;;6.20;;
80195;SDS011;69516;42.050;21.516;2024-03-25T05:26:57;12.30;;;5.57;;
80195;SDS011;69516;42.050;21.516;2024-03-25T05:29:24;12.38;;;6.28;;
80195;SDS011;69516;42.050;21.516;2024-03-25T05:32:00;12.18;;;6.07;;
80195;SDS011;69516;42.050;21.516;2024-03-25T05:34:26;12.38;;;6.05;;
80195;SDS011;69516;42.050;21.516;2024-03-25T05:36:53;11.90;;;6.13;;
80195;SDS011;69516;42.050;21.516;2024-03-25T05:39:19;10.77;;;5.57;;
80195;SDS011;69516;42.050;21.516;2024-03-25T05:41:46;9.88;;;5.40;;
80195;SDS011;69516;42.050;21.516;2024-03-25T05:44:13;9.98;;;5.03;;
80195;SDS011;69516;42.050;21.516;2024-03-25T05:46:39;11.88;;;5.22;;
80195;SDS011;69516;42.050;21.516;2024-03-25T05:49:05;10.45;;;4.97;;
80195;SDS011;69516;42.050;21.516;2024-03-25T05:51:32;8.63;;;4.70;;
80195;SDS011;69516;42.050;21.516;2024-03-25T05:53:58;10.02;;;5.18;;
80195;SDS011;69516;42.050;21.516;2024-03-25T05:56:25;17.40;;;7.72;;
80195;SDS011;69516;42.050;21.516;2024-03-25T05:58:58;10.73;;;5.57;;
80195;SDS011;69516;42.050;21.516;2024-03-25T06:01:24;10.50;;;5.40;;
80195;SDS011;69516;42.050;21.516;2024-03-25T06:03:50;9.23;;;4.95;;
80195;SDS011;69516;42.050;21.516;2024-03-25T06:06:16;10.98;;;5.47;;
80195;SDS011;69516;42.050;21.516;2024-03-25T06:08:43;10.57;;;4.82;;
80195;SDS011;69516;42.050;21.516;2024-03-25T06:11:09;9.50;;;4.63;;
80195;SDS011;69516;42.050;21.516;2024-03-25T06:13:35;10.93;;;5.85;;
80195;SDS011;69516;42.050;21.516;2024-03-25T06:16:01;11.82;;;5.65;;
80195;SDS011;69516;42.050;21.516;2024-03-25T06:18:28;9.63;;;4.78;;
80195;SDS011;69516;42.050;21.516;2024-03-25T06:20:54;9.45;;;4.55;;
80195;SDS011;69516;42.050;21.516;2024-03-25T06:28:16;10.63;;;5.63;;
80195;SDS011;69516;42.050;21.516;2024-03-25T06:30:43;9.95;;;5.30;;
80195;SDS011;69516;42.050;21.516;2024-03-25T06:33:29;8.88;;;5.22;;
80195;SDS011;69516;42.050;21.516;2024-03-25T06:36:13;9.85;;;5.57;;
80195;SDS011;69516;42.050;21.516;2024-03-25T06:38:40;10.63;;;5.47;;
80195;SDS011;69516;42.050;21.516;2024-03-25T06:41:06;12.75;;;6.13;;
80195;SDS011;69516;42.050;21.516;2024-03-25T06:43:32;10.35;;;5.30;;
80195;SDS011;69516;42.050;21.516;2024-03-25T06:45:58;14.15;;;6.55;;
80195;SDS011;69516;42.050;21.516;2024-03-25T06:48:24;12.55;;;6.60;;
80195;SDS011;69516;42.050;21.516;2024-03-25T06:50:56;13.85;;;6.95;;
80195;SDS011;69516;42.050;21.516;2024-03-25T06:53:23;13.77;;;7.32;;
80195;SDS011;69516;42.050;21.516;2024-03-25T07:00:44;11.27;;;6.50;;
80195;SDS011;69516;42.050;21.516;2024-03-25T07:03:10;10.30;;;6.13;;
80195;SDS011;69516;42.050;21.516;2024-03-25T07:05:36;11.00;;;6.78;;
80195;SDS011;69516;42.050;21.516;2024-03-25T07:08:02;12.68;;;8.15;;
80195;SDS011;69516;42.050;21.516;2024-03-25T07:10:29;12.13;;;6.78;;
80195;SDS011;69516;42.050;21.516;2024-03-25T07:12:55;13.23;;;7.10;;
80195;SDS011;69516;42.050;21.516;2024-03-25T07:15:25;12.95;;;7.10;;
80195;SDS011;69516;42.050;21.516;2024-03-25T07:17:51;11.25;;;6.43;;
80195;SDS011;69516;42.050;21.516;2024-03-25T07:20:17;12.10;;;7.80;;
80195;SDS011;69516;42.050;21.516;2024-03-25T07:22:44;12.40;;;7.57;;
80195;SDS011;69516;42.050;21.516;2024-03-25T07:25:11;14.05;;;7.88;;
80195;SDS011;69516;42.050;21.516;2024-03-25T07:27:37;13.05;;;7.43;;
80195;SDS011;69516;42.050;21.516;2024-03-25T07:30:03;15.90;;;9.25;;
80195;SDS011;69516;42.050;21.516;2024-03-25T07:32:31;16.45;;;9.38;;
80195;SDS011;69516;42.050;21.516;2024-03-25T07:34:58;10.60;;;5.90;;
80195;SDS011;69516;42.050;21.516;2024-03-25T07:37:24;12.00;;;6.20;;
80195;SDS011;69516;42.050;21.516;2024-03-25T07:39:50;12.27;;;7.10;;
80195;SDS011;69516;42.050;21.516;2024-03-25T07:42:17;12.02;;;5.90;;
80195;SDS011;69516;42.050;21.516;2024-03-25T07:44:44;12.45;;;6.90;;
80195;SDS011;69516;42.050;21.516;2024-03-25T07:47:13;9.32;;;5.38;;
80195;SDS011;69516;42.050;21.516;2024-03-25T07:49:39;9.77;;;5.88;;
80195;SDS011;69516;42.050;21.516;2024-03-25T07:52:05;10.82;;;6.55;;
80195;SDS011;69516;42.050;21.516;2024-03-25T07:54:32;9.65;;;5.53;;
80195;SDS011;69516;42.050;21.516;2024-03-25T07:56:58;10.50;;;5.95;;
80195;SDS011;69516;42.050;21.516;2024-03-25T07:59:24;10.18;;;5.15;;
80195;SDS011;69516;42.050;21.516;2024-03-25T08:01:52;9.95;;;5.32;;
80195;SDS011;69516;42.050;21.516;2024-03-25T08:04:19;9.95;;;5.30;;
80195;SDS011;69516;42.050;21.516;2024-03-25T08:06:46;8.13;;;4.90;;
80195;SDS011;69516;42.050;21.516;2024-03-25T08:09:12;14.43;;;5.68;;
80195;SDS011;69516;42.050;21.516;2024-03-25T08:14:09;12.95;;;5.93;;
80195;SDS011;69516;42.050;21.516;2024-03-25T08:16:36;13.75;;;6.72;;
80195;SDS011;69516;42.050;21.516;2024-03-25T08:19:03;14.07;;;8.30;;
80195;SDS011;69516;42.050;21.516;2024-03-25T08:21:29;16.40;;;7.13;;
80195;SDS011;69516;42.050;21.516;2024-03-25T08:23:55;13.35;;;7.32;;
80195;SDS011;69516;42.050;21.516;2024-03-25T08:26:21;18.83;;;8.90;;
80195;SDS011;69516;42.050;21.516;2024-03-25T08:28:48;12.45;;;6.55;;
80195;SDS011;69516;42.050;21.516;2024-03-25T08:31:14;15.30;;;7.45;;
80195;SDS011;69516;42.050;21.516;2024-03-25T08:33:44;12.73;;;6.30;;
80195;SDS011;69516;42.050;21.516;2024-03-25T08:36:13;12.88;;;6.28;;
80195;SDS011;69516;42.050;21.516;2024-03-25T08:38:39;10.82;;;6.47;;
80195;SDS011;69516;42.050;21.516;2024-03-25T08:41:05;13.07;;;6.47;;
80195;SDS011;69516;42.050;21.516;2024-03-25T08:43:31;10.63;;;5.43;;
80195;SDS011;69516;42.050;21.516;2024-03-25T08:45:57;10.82;;;5.88;;
80195;SDS011;69516;42.050;21.516;2024-03-25T08:48:24;11.68;;;5.55;;
80195;SDS011;69516;42.050;21.516;2024-03-25T08:50:50;8.98;;;4.80;;
80195;SDS011;69516;42.050;21.516;2024-03-25T08:53:16;10.35;;;5.50;;
80195;SDS011;69516;42.050;21.516;2024-03-25T08:55:45;10.48;;;4.72;;
80195;SDS011;69516;42.050;21.516;2024-03-25T08:58:14;9.02;;;4.60;;
80195;SDS011;69516;42.050;21.516;2024-03-25T09:00:41;9.07;;;4.50;;
80195;SDS011;69516;42.050;21.516;2024-03-25T09:03:07;8.70;;;4.95;;
80195;SDS011;69516;42.050;21.516;2024-03-25T09:05:33;11.68;;;5.85;;
80195;SDS011;69516;42.050;21.516;2024-03-25T09:08:00;9.88;;;5.15;;
80195;SDS011;69516;42.050;21.516;2024-03-25T09:10:26;7.97;;;3.97;;
80195;SDS011;69516;42.050;21.516;2024-03-25T09:13:11;8.48;;;4.45;;
80195;SDS011;69516;42.050;21.516;2024-03-25T09:15:37;8.15;;;4.13;;
80195;SDS011;69516;42.050;21.516;2024-03-25T09:18:04;7.55;;;4.07;;
80195;SDS011;69516;42.050;21.516;2024-03-25T09:20:30;8.55;;;4.40;;
80195;SDS011;69516;42.050;21.516;2024-03-25T09:22:56;7.57;;;4.05;;
80195;SDS011;69516;42.050;21.516;2024-03-25T09:25:22;7.30;;;4.05;;
80195;SDS011;69516;42.050;21.516;2024-03-25T09:27:49;10.23;;;4.50;;
80195;SDS011;69516;42.050;21.516;2024-03-25T09:30:16;7.90;;;3.85;;
80195;SDS011;69516;42.050;21.516;2024-03-25T09:32:46;9.40;;;4.88;;
80195;SDS011;69516;42.050;21.516;2024-03-25T09:35:13;7.28;;;4.25;;
80195;SDS011;69516;42.050;21.516;2024-03-25T09:37:39;8.25;;;3.92;;
80195;SDS011;69516;42.050;21.516;2024-03-25T09:40:05;7.03;;;3.50;;
80195;SDS011;69516;42.050;21.516;2024-03-25T09:42:33;6.85;;;3.70;;
80195;SDS011;69516;42.050;21.516;2024-03-25T09:45:00;8.80;;;3.90;;
80195;SDS011;69516;42.050;21.516;2024-03-25T09:47:27;10.70;;;5.35;;
80195;SDS011;69516;42.050;21.516;2024-03-25T09:49:54;10.45;;;5.03;;
80195;SDS011;69516;42.050;21.516;2024-03-25T09:52:20;8.98;;;4.88;;
80195;SDS011;69516;42.050;21.516;2024-03-25T09:54:46;10.32;;;4.63;;
80195;SDS011;69516;42.050;21.516;2024-03-25T09:57:13;9.27;;;4.72;;
80195;SDS011;69516;42.050;21.516;2024-03-25T09:59:40;11.85;;;5.50;;
80195;SDS011;69516;42.050;21.516;2024-03-25T10:02:06;9.45;;;4.38;;
80195;SDS011;69516;42.050;21.516;2024-03-25T10:04:43;8.63;;;4.40;;
80195;SDS011;69516;42.050;21.516;2024-03-25T10:07:11;9.60;;;4.32;;
80195;SDS011;69516;42.050;21.516;2024-03-25T10:09:37;7.78;;;2.72;;
80195;SDS011;69516;42.050;21.516;2024-03-25T10:12:03;5.32;;;1.80;;
80195;SDS011;69516;42.050;21.516;2024-03-25T10:14:29;6.38;;;2.40;;
80195;SDS011;69516;42.050;21.516;2024-03-25T10:16:55;5.53;;;2.45;;
80195;SDS011;69516;42.050;21.516;2024-03-25T10:19:21;4.95;;;1.95;;
80195;SDS011;69516;42.050;21.516;2024-03-25T10:21:48;5.18;;;1.73;;
80195;SDS011;69516;42.050;21.516;2024-03-25T10:24:16;5.03;;;1.85;;
80195;SDS011;69516;42.050;21.516;2024-03-25T10:26:42;5.68;;;1.90;;
80195;SDS011;69516;42.050;21.516;2024-03-25T10:29:10;5.00;;;1.95;;
80195;SDS011;69516;42.050;21.516;2024-03-25T10:31:36;5.30;;;1.88;;
80195;SDS011;69516;42.050;21.516;2024-03-25T10:34:02;6.00;;;1.92;;
80195;SDS011;69516;42.050;21.516;2024-03-25T10:36:28;9.40;;;2.72;;
80195;SDS011;69516;42.050;21.516;2024-03-25T10:38:56;6.13;;;2.15;;
80195;SDS011;69516;42.050;21.516;2024-03-25T10:41:23;6.18;;;2.30;;
80195;SDS011;69516;42.050;21.516;2024-03-25T10:43:51;5.18;;;2.00;;
80195;SDS011;69516;42.050;21.516;2024-03-25T10:46:20;5.93;;;2.03;;
80195;SDS011;69516;42.050;21.516;2024-03-25T10:51:22;6.47;;;2.15;;
80195;SDS011;69516;42.050;21.516;2024-03-25T10:53:51;5.95;;;2.15;;
80195;SDS011;69516;42.050;21.516;2024-03-25T10:58:52;5.32;;;1.98;;
80195;SDS011;69516;42.050;21.516;2024-03-25T11:01:19;6.93;;;1.90;;
80195;SDS011;69516;42.050;21.516;2024-03-25T11:03:45;9.02;;;2.30;;
80195;SDS011;69516;42.050;21.516;2024-03-25T11:06:15;7.78;;;2.17;;
80195;SDS011;69516;42.050;21.516;2024-03-25T11:08:44;8.43;;;2.20;;
80195;SDS011;69516;42.050;21.516;2024-03-25T11:11:13;8.30;;;1.95;;
80195;SDS011;69516;42.050;21.516;2024-03-25T11:13:41;7.60;;;2.50;;
80195;SDS011;69516;42.050;21.516;2024-03-25T11:16:08;6.63;;;2.70;;
80195;SDS011;69516;42.050;21.516;2024-03-25T11:18:37;7.68;;;2.45;;
80195;SDS011;69516;42.050;21.516;2024-03-25T11:21:04;7.00;;;2.30;;
80195;SDS011;69516;42.050;21.516;2024-03-25T11:24:05;7.60;;;2.10;;
80195;SDS011;69516;42.050;21.516;2024-03-25T11:26:26;7.97;;;2.67;;
80195;SDS011;69516;42.050;21.516;2024-03-25T11:28:54;6.43;;;2.58;;
80195;SDS011;69516;42.050;21.516;2024-03-25T11:31:20;6.63;;;2.35;;
80195;SDS011;69516;42.050;21.516;2024-03-25T11:33:49;6.80;;;2.63;;
80195;SDS011;69516;42.050;21.516;2024-03-25T11:36:16;9.18;;;2.38;;
80195;SDS011;69516;42.050;21.516;2024-03-25T11:38:57;8.70;;;2.90;;
80195;SDS011;69516;42.050;21.516;2024-03-25T11:41:23;7.85;;;3.72;;
80195;SDS011;69516;42.050;21.516;2024-03-25T11:43:50;5.90;;;2.10;;
80195;SDS011;69516;42.050;21.516;2024-03-25T11:46:19;9.15;;;2.72;;
80195;SDS011;69516;42.050;21.516;2024-03-25T11:48:46;5.93;;;2.15;;
80195;SDS011;69516;42.050;21.516;2024-03-25T11:51:12;7.53;;;2.65;;
80195;SDS011;69516;42.050;21.516;2024-03-25T11:53:41;6.10;;;2.38;;
80195;SDS011;69516;42.050;21.516;2024-03-25T11:56:07;6.13;;;2.78;;
80195;SDS011;69516;42.050;21.516;2024-03-25T11:58:33;7.13;;;2.55;;
80195;SDS011;69516;42.050;21.516;2024-03-25T12:01:00;7.45;;;2.92;;
80195;SDS011;69516;42.050;21.516;2024-03-25T12:03:26;5.88;;;2.67;;
80195;SDS011;69516;42.050;21.516;2024-03-25T12:05:52;8.88;;;2.72;;
80195;SDS011;69516;42.050;21.516;2024-03-25T12:08:19;5.85;;;2.33;;
80195;SDS011;69516;42.050;21.516;2024-03-25T12:10:48;5.78;;;2.60;;
80195;SDS011;69516;42.050;21.516;2024-03-25T12:13:32;5.68;;;2.35;;
80195;SDS011;69516;42.050;21.516;2024-03-25T12:15:59;5.00;;;2.08;;
80195;SDS011;69516;42.050;21.516;2024-03-25T12:18:25;4.53;;;2.10;;
80195;SDS011;69516;42.050;21.516;2024-03-25T12:20:51;6.38;;;2.45;;
80195;SDS011;69516;42.050;21.516;2024-03-25T12:23:17;6.00;;;2.20;;
80195;SDS011;69516;42.050;21.516;2024-03-25T12:25:50;6.70;;;2.70;;
80195;SDS011;69516;42.050;21.516;2024-03-25T12:28:16;6.55;;;2.60;;
80195;SDS011;69516;42.050;21.516;2024-03-25T12:30:49;5.80;;;2.63;;
80195;SDS011;69516;42.050;21.516;2024-03-25T12:33:16;5.30;;;1.92;;
80195;SDS011;69516;42.050;21.516;2024-03-25T12:35:46;4.60;;;2.47;;
80195;SDS011;69516;42.050;21.516;2024-03-25T12:38:22;5.20;;;2.65;;
80195;SDS011;69516;42.050;21.516;2024-03-25T12:40:51;7.10;;;2.60;;
80195;SDS011;69516;42.050;21.516;2024-03-25T12:43:17;5.55;;;2.35;;
80195;SDS011;69516;42.050;21.516;2024-03-25T12:45:43;5.22;;;2.35;;
80195;SDS011;69516;42.050;21.516;2024-03-25T12:48:10;4.38;;;1.90;;
80195;SDS011;69516;42.050;21.516;2024-03-25T12:50:37;5.20;;;2.08;;
80195;SDS011;69516;42.050;21.516;2024-03-25T12:53:04;6.57;;;2.00;;
80195;SDS011;69516;42.050;21.516;2024-03-25T12:55:31;4.65;;;1.80;;
80195;SDS011;69516;42.050;21.516;2024-03-25T12:57:57;5.22;;;2.15;;
80195;SDS011;69516;42.050;21.516;2024-03-25T13:00:23;4.25;;;1.92;;
80195;SDS011;69516;42.050;21.516;2024-03-25T13:02:50;4.80;;;2.05;;
80195;SDS011;69516;42.050;21.516;2024-03-25T13:05:16;6.18;;;1.83;;
80195;SDS011;69516;42.050;21.516;2024-03-25T13:07:42;4.47;;;2.05;;
80195;SDS011;69516;42.050;21.516;2024-03-25T13:10:09;4.63;;;2.10;;
80195;SDS011;69516;42.050;21.516;2024-03-25T13:12:35;4.03;;;2.00;;
80195;SDS011;69516;42.050;21.516;2024-03-25T13:15:01;4.45;;;1.90;;
80195;SDS011;69516;42.050;21.516;2024-03-25T13:17:28;3.95;;;1.98;;
80195;SDS011;69516;42.050;21.516;2024-03-25T13:19:54;5.40;;;1.70;;
80195;SDS011;69516;42.050;21.516;2024-03-25T13:22:21;4.50;;;2.13;;
80195;SDS011;69516;42.050;21.516;2024-03-25T13:24:47;5.05;;;2.00;;
80195;SDS011;69516;42.050;21.516;2024-03-25T13:27:13;3.90;;;1.90;;
80195;SDS011;69516;42.050;21.516;2024-03-25T13:29:39;5.40;;;2.13;;
80195;SDS011;69516;42.050;21.516;2024-03-25T13:32:05;4.57;;;2.00;;
80195;SDS011;69516;42.050;21.516;2024-03-25T13:34:32;5.40;;;2.38;;
80195;SDS011;69516;42.050;21.516;2024-03-25T13:37:01;4.90;;;1.92;;
80195;SDS011;69516;42.050;21.516;2024-03-25T13:39:29;4.30;;;1.98;;
80195;SDS011;69516;42.050;21.516;2024-03-25T13:44:24;5.07;;;2.28;;
80195;SDS011;69516;42.050;21.516;2024-03-25T13:46:51;6.55;;;2.92;;
80195;SDS011;69516;42.050;21.516;2024-03-25T13:49:17;5.32;;;2.35;;
80195;SDS011;69516;42.050;21.516;2024-03-25T13:51:45;4.63;;;2.10;;
80195;SDS011;69516;42.050;21.516;2024-03-25T13:54:11;5.35;;;2.10;;
80195;SDS011;69516;42.050;21.516;2024-03-25T13:56:38;5.10;;;2.03;;
80195;SDS011;69516;42.050;21.516;2024-03-25T13:59:07;4.05;;;1.80;;
80195;SDS011;69516;42.050;21.516;2024-03-25T14:01:33;5.82;;;2.35;;
80195;SDS011;69516;42.050;21.516;2024-03-25T14:04:00;4.63;;;2.10;;
80195;SDS011;69516;42.050;21.516;2024-03-25T14:06:26;4.32;;;1.67;;
80195;SDS011;69516;42.050;21.516;2024-03-25T14:08:55;7.82;;;2.20;;
80195;SDS011;69516;42.050;21.516;2024-03-25T14:11:21;4.65;;;2.00;;
80195;SDS011;69516;42.050;21.516;2024-03-25T14:13:48;4.82;;;2.33;;
80195;SDS011;69516;42.050;21.516;2024-03-25T14:16:14;4.68;;;2.33;;
80195;SDS011;69516;42.050;21.516;2024-03-25T14:18:40;6.22;;;3.13;;
80195;SDS011;69516;42.050;21.516;2024-03-25T14:21:07;6.43;;;2.33;;
80195;SDS011;69516;42.050;21.516;2024-03-25T14:23:33;6.18;;;2.95;;
80195;SDS011;69516;42.050;21.516;2024-03-25T14:25:59;5.75;;;2.78;;
80195;SDS011;69516;42.050;21.516;2024-03-25T14:28:26;4.32;;;2.00;;
80195;SDS011;69516;42.050;21.516;2024-03-25T14:30:52;4.70;;;2.08;;
80195;SDS011;69516;42.050;21.516;2024-03-25T14:33:19;5.35;;;2.22;;
80195;SDS011;69516;42.050;21.516;2024-03-25T14:35:46;4.85;;;2.13;;
80195;SDS011;69516;42.050;21.516;2024-03-25T14:38:13;3.88;;;1.75;;
80195;SDS011;69516;42.050;21.516;2024-03-25T14:40:39;6.15;;;2.38;;
80195;SDS011;69516;42.050;21.516;2024-03-25T14:43:06;3.92;;;1.60;;
80195;SDS011;69516;42.050;21.516;2024-03-25T14:45:32;3.95;;;1.60;;
80195;SDS011;69516;42.050;21.516;2024-03-25T14:47:59;4.22;;;1.67;;
80195;SDS011;69516;42.050;21.516;2024-03-25T14:50:25;4.65;;;2.20;;